Time;durP1;ratioP1;P1;durP2;ratioP2;P2;SDS_P1;SDS_P2;PMS_P1;PMS_P2;Temp;Humidity;BMP_temperature;BMP_pressure;BME280_temperature;BME280_humidity;BME280_pressure;Samples;Min_cycle;Max_cycle;Signal;HPM_P1;HPM_P2
2023/08/17 00:00:38;;;;;;;7.10;2.67;;;;;;;;;;4946892;28;20066;-92
2023/08/17 00:03:05;;;;;;;10.15;2.33;;;;;;;;;;4941509;29;20047;-92
2023/08/17 00:05:33;;;;;;;3.80;2.35;;;;;;;;;;4966546;29;20043;-93
2023/08/17 00:08:01;;;;;;;3.80;2.25;;;;;;;;;;4940844;29;20058;-94
2023/08/17 00:10:28;;;;;;;3.35;1.80;;;;;;;;;;4945605;29;20059;-93
2023/08/17 00:12:58;;;;;;;6.88;2.28;;;;;;;;;;4944239;29;20051;-93
2023/08/17 00:15:26;;;;;;;4.30;2.35;;;;;;;;;;4964317;29;20050;-93
2023/08/17 00:17:55;;;;;;;6.85;2.38;;;;;;;;;;4948677;28;20043;-92
2023/08/17 00:20:22;;;;;;;4.35;2.45;;;;;;;;;;4958545;28;20058;-92
2023/08/17 00:22:54;;;;;;;5.18;2.50;;;;;;;;;;4961537;29;20054;-93
2023/08/17 00:25:21;;;;;;;2.90;2.00;;;;;;;;;;4959781;29;20055;-92
2023/08/17 00:27:50;;;;;;;2.28;1.70;;;;;;;;;;4965253;29;20058;-93
2023/08/17 00:30:18;;;;;;;3.63;1.48;;;;;;;;;;4921996;29;20043;-93
2023/08/17 00:32:45;;;;;;;5.50;2.00;;;;;;;;;;4920410;29;20087;-93
2023/08/17 00:35:14;;;;;;;7.72;1.85;;;;;;;;;;4929467;29;20070;-92
2023/08/17 00:37:41;;;;;;;1.85;1.48;;;;;;;;;;4944279;29;20059;-92
2023/08/17 00:40:10;;;;;;;3.00;1.55;;;;;;;;;;4946431;29;20051;-93
2023/08/17 00:42:37;;;;;;;4.63;1.98;;;;;;;;;;4932962;29;20051;-93
2023/08/17 00:45:06;;;;;;;4.72;1.67;;;;;;;;;;4948743;29;20059;-93
2023/08/17 00:47:33;;;;;;;1.85;1.27;;;;;;;;;;4947940;29;20047;-93
2023/08/17 00:50:01;;;;;;;2.08;1.55;;;;;;;;;;4927737;29;20058;-93
2023/08/17 00:52:33;;;;;;;2.67;1.63;;;;;;;;;;4967190;28;20035;-91
2023/08/17 00:55:01;;;;;;;3.83;2.13;;;;;;;;;;4957116;28;20045;-93
2023/08/17 00:57:31;;;;;;;3.67;1.42;;;;;;;;;;4972408;29;20062;-93
2023/08/17 01:00:00;;;;;;;2.65;1.75;;;;;;;;;;4934460;28;20027;-93
2023/08/17 01:02:27;;;;;;;3.13;1.88;;;;;;;;;;4969778;29;20558;-93
2023/08/17 01:04:55;;;;;;;1.90;1.33;;;;;;;;;;4941206;29;20055;-91
2023/08/17 01:07:22;;;;;;;1.77;1.55;;;;;;;;;;4939109;29;20059;-93
2023/08/17 01:09:51;;;;;;;3.33;1.60;;;;;;;;;;4934551;29;20061;-94
2023/08/17 01:12:30;;;;;;;5.10;1.92;;;;;;;;;;4969194;28;20063;-93
2023/08/17 01:15:06;;;;;;;1.98;1.40;;;;;;;;;;4940000;29;20051;-92
2023/08/17 01:17:41;;;;;;;3.33;1.95;;;;;;;;;;4938814;29;20068;-93
2023/08/17 01:20:12;;;;;;;2.45;1.60;;;;;;;;;;4945777;29;20047;-93
2023/08/17 01:22:42;;;;;;;4.78;2.45;;;;;;;;;;4950009;29;20055;-94
2023/08/17 01:25:13;;;;;;;7.47;1.85;;;;;;;;;;4936081;29;20063;-92
2023/08/17 01:27:45;;;;;;;6.57;2.05;;;;;;;;;;4947619;29;20047;-92
2023/08/17 01:30:14;;;;;;;2.35;1.85;;;;;;;;;;4935545;29;20062;-92
2023/08/17 01:32:49;;;;;;;7.50;2.08;;;;;;;;;;4933843;29;20051;-93
2023/08/17 01:35:24;;;;;;;3.42;2.20;;;;;;;;;;4971349;29;20058;-93
2023/08/17 01:37:54;;;;;;;3.50;1.73;;;;;;;;;;4947649;29;20055;-94
2023/08/17 01:40:24;;;;;;;3.15;1.60;;;;;;;;;;4953275;29;20051;-93
2023/08/17 01:42:54;;;;;;;7.28;2.50;;;;;;;;;;4949351;29;20546;-94
2023/08/17 01:45:22;;;;;;;13.60;2.08;;;;;;;;;;4969270;29;20059;-93
2023/08/17 01:47:55;;;;;;;5.05;2.72;;;;;;;;;;4948510;29;20067;-93
2023/08/17 01:50:27;;;;;;;2.88;1.98;;;;;;;;;;4966972;29;20050;-94
2023/08/17 01:52:54;;;;;;;8.25;2.13;;;;;;;;;;4968129;28;20051;-92
2023/08/17 01:55:23;;;;;;;7.07;2.38;;;;;;;;;;4936682;29;20063;-93
2023/08/17 01:57:51;;;;;;;3.80;1.95;;;;;;;;;;4937698;29;20054;-94
2023/08/17 02:00:18;;;;;;;5.82;1.73;;;;;;;;;;4934692;29;20054;-93
2023/08/17 02:02:46;;;;;;;5.95;2.38;;;;;;;;;;4947593;29;20039;-93
2023/08/17 02:05:13;;;;;;;4.13;2.40;;;;;;;;;;4931302;29;20047;-93
2023/08/17 02:07:49;;;;;;;4.78;2.30;;;;;;;;;;4937869;29;20055;-93
2023/08/17 02:10:16;;;;;;;4.85;1.65;;;;;;;;;;4953213;29;20051;-93
2023/08/17 02:12:46;;;;;;;2.45;1.45;;;;;;;;;;4930364;29;20082;-92
2023/08/17 02:15:14;;;;;;;6.63;1.90;;;;;;;;;;4934330;29;20062;-93
2023/08/17 02:17:44;;;;;;;8.13;2.65;;;;;;;;;;4930041;29;20055;-94
2023/08/17 02:20:14;;;;;;;6.75;2.67;;;;;;;;;;4948854;29;20055;-93
2023/08/17 02:22:43;;;;;;;4.60;2.20;;;;;;;;;;4930210;29;20078;-94
2023/08/17 02:25:11;;;;;;;5.57;1.75;;;;;;;;;;4929064;29;20065;-93
2023/08/17 02:27:40;;;;;;;3.25;2.00;;;;;;;;;;4928174;29;20082;-93
2023/08/17 02:30:11;;;;;;;4.28;2.15;;;;;;;;;;4949824;29;20047;-94
2023/08/17 02:32:40;;;;;;;6.15;2.08;;;;;;;;;;4948204;29;20055;-93
2023/08/17 02:35:13;;;;;;;2.47;1.95;;;;;;;;;;4946800;29;20521;-93
2023/08/17 02:37:42;;;;;;;4.28;2.05;;;;;;;;;;4930794;29;20055;-92
2023/08/17 02:40:12;;;;;;;3.42;1.90;;;;;;;;;;4948039;29;20059;-93
2023/08/17 02:42:40;;;;;;;4.45;1.73;;;;;;;;;;4945602;29;20047;-92
2023/08/17 02:45:10;;;;;;;2.88;1.67;;;;;;;;;;4943307;29;20055;-92
2023/08/17 02:47:37;;;;;;;2.58;1.52;;;;;;;;;;4957139;29;20065;-93
2023/08/17 02:50:06;;;;;;;7.68;1.52;;;;;;;;;;4936601;29;20063;-92
2023/08/17 02:52:35;;;;;;;3.85;2.10;;;;;;;;;;4951313;29;20047;-93
2023/08/17 02:55:02;;;;;;;2.90;1.63;;;;;;;;;;4933002;29;20052;-93
2023/08/17 02:57:29;;;;;;;3.10;1.90;;;;;;;;;;4948061;29;20144;-93
2023/08/17 02:59:57;;;;;;;2.90;1.52;;;;;;;;;;4935494;29;20047;-93
2023/08/17 03:02:25;;;;;;;5.70;2.50;;;;;;;;;;4942903;29;20052;-93
2023/08/17 03:04:53;;;;;;;7.15;1.88;;;;;;;;;;4952380;29;20059;-93
2023/08/17 03:07:22;;;;;;;3.88;1.98;;;;;;;;;;4932297;29;20051;-93
2023/08/17 03:09:53;;;;;;;2.22;1.70;;;;;;;;;;4953566;29;20307;-93
2023/08/17 03:12:20;;;;;;;2.17;1.90;;;;;;;;;;4952658;28;20114;-92
2023/08/17 03:14:48;;;;;;;4.60;2.15;;;;;;;;;;4932615;29;20066;-93
2023/08/17 03:17:15;;;;;;;7.30;2.05;;;;;;;;;;4935476;29;20149;-93
2023/08/17 03:19:44;;;;;;;5.30;1.55;;;;;;;;;;4953492;29;20047;-93
2023/08/17 03:22:12;;;;;;;7.25;2.40;;;;;;;;;;4960180;28;20045;-91
2023/08/17 03:24:39;;;;;;;3.83;1.90;;;;;;;;;;4956602;28;20042;-90
2023/08/17 03:27:06;;;;;;;3.65;2.33;;;;;;;;;;4947234;29;20059;-93
2023/08/17 03:29:36;;;;;;;6.70;1.95;;;;;;;;;;4935052;29;20047;-93
2023/08/17 03:32:04;;;;;;;5.68;2.00;;;;;;;;;;4935650;29;20047;-93
2023/08/17 03:34:32;;;;;;;5.55;2.05;;;;;;;;;;4967060;28;20066;-93
2023/08/17 03:37:05;;;;;;;5.47;2.38;;;;;;;;;;4948849;29;20043;-93
2023/08/17 03:39:33;;;;;;;3.17;1.70;;;;;;;;;;4934979;29;20379;-93
2023/08/17 03:42:00;;;;;;;6.18;2.17;;;;;;;;;;4933030;29;20071;-93
2023/08/17 03:44:30;;;;;;;2.35;2.13;;;;;;;;;;4948221;29;20056;-94
2023/08/17 03:46:57;;;;;;;4.15;2.05;;;;;;;;;;4927836;29;20077;-93
2023/08/17 03:49:24;;;;;;;3.92;1.80;;;;;;;;;;4947135;29;20061;-92
2023/08/17 03:51:54;;;;;;;4.75;1.85;;;;;;;;;;4931605;29;20055;-93
2023/08/17 03:54:24;;;;;;;5.13;2.00;;;;;;;;;;4948512;29;20051;-93
2023/08/17 03:56:53;;;;;;;13.88;2.30;;;;;;;;;;4939551;29;20055;-93
2023/08/17 03:59:21;;;;;;;3.40;2.00;;;;;;;;;;4947765;29;20055;-93
2023/08/17 04:01:48;;;;;;;5.60;2.35;;;;;;;;;;4928815;29;20302;-93
2023/08/17 04:04:16;;;;;;;7.35;1.73;;;;;;;;;;4924104;29;20520;-94
2023/08/17 04:06:43;;;;;;;2.42;1.92;;;;;;;;;;4919943;29;20054;-93
2023/08/17 04:09:13;;;;;;;3.65;1.90;;;;;;;;;;4921930;29;20433;-92
2023/08/17 04:11:45;;;;;;;4.65;2.63;;;;;;;;;;4965331;29;20063;-92
2023/08/17 04:14:13;;;;;;;7.15;2.58;;;;;;;;;;4930266;29;20043;-93
2023/08/17 04:16:42;;;;;;;4.70;1.90;;;;;;;;;;4956838;28;20052;-92
2023/08/17 04:19:10;;;;;;;4.07;2.22;;;;;;;;;;4934029;29;20050;-92
2023/08/17 04:21:37;;;;;;;6.35;2.80;;;;;;;;;;4929975;29;20419;-93
2023/08/17 04:24:05;;;;;;;14.77;3.25;;;;;;;;;;4930813;29;20065;-92
2023/08/17 04:26:36;;;;;;;5.95;2.03;;;;;;;;;;4936587;29;20653;-92
2023/08/17 04:29:05;;;;;;;9.23;2.20;;;;;;;;;;4948658;29;20053;-94
2023/08/17 04:31:33;;;;;;;2.75;1.95;;;;;;;;;;4912840;29;20052;-94
2023/08/17 04:34:03;;;;;;;3.95;2.38;;;;;;;;;;4928458;29;20514;-94
2023/08/17 04:36:31;;;;;;;8.68;2.30;;;;;;;;;;4945482;29;20054;-92
2023/08/17 04:39:01;;;;;;;2.90;1.73;;;;;;;;;;4935128;29;20054;-92
2023/08/17 04:41:28;;;;;;;2.58;1.67;;;;;;;;;;4942397;29;20047;-92
2023/08/17 04:43:58;;;;;;;2.80;1.75;;;;;;;;;;4962902;29;20047;-91
2023/08/17 04:46:27;;;;;;;6.30;2.15;;;;;;;;;;4953908;29;20053;-93
2023/08/17 04:48:55;;;;;;;2.53;1.92;;;;;;;;;;4939488;29;20055;-91
2023/08/17 04:51:23;;;;;;;4.10;2.05;;;;;;;;;;4930315;29;20047;-92
2023/08/17 04:53:50;;;;;;;4.00;2.28;;;;;;;;;;4947160;28;20831;-93
2023/08/17 04:56:20;;;;;;;4.78;2.42;;;;;;;;;;4934246;29;20067;-92
2023/08/17 04:58:47;;;;;;;2.85;1.85;;;;;;;;;;4919001;29;20434;-93
2023/08/17 05:01:16;;;;;;;6.57;1.90;;;;;;;;;;4918549;29;20055;-93
2023/08/17 05:03:45;;;;;;;8.48;3.10;;;;;;;;;;4920492;29;20051;-91
2023/08/17 05:06:15;;;;;;;2.80;1.90;;;;;;;;;;4915895;29;20043;-90
2023/08/17 05:08:42;;;;;;;5.22;2.58;;;;;;;;;;4949728;29;20776;-92
2023/08/17 05:11:10;;;;;;;4.53;2.00;;;;;;;;;;4936462;29;20060;-91
2023/08/17 05:13:37;;;;;;;5.20;2.15;;;;;;;;;;4932893;29;20399;-92
2023/08/17 05:16:06;;;;;;;3.25;2.30;;;;;;;;;;4919089;29;20058;-91
2023/08/17 05:18:33;;;;;;;4.30;2.20;;;;;;;;;;4946456;29;20639;-91
2023/08/17 05:21:05;;;;;;;6.47;2.53;;;;;;;;;;4927322;29;20051;-92
2023/08/17 05:23:33;;;;;;;4.53;2.28;;;;;;;;;;4921397;29;20054;-91
2023/08/17 05:26:03;;;;;;;4.00;2.60;;;;;;;;;;4914632;29;20070;-92
2023/08/17 05:28:31;;;;;;;2.33;2.05;;;;;;;;;;4923056;29;20047;-92
2023/08/17 05:31:04;;;;;;;2.95;2.45;;;;;;;;;;4940991;29;20047;-93
2023/08/17 05:33:32;;;;;;;5.40;2.15;;;;;;;;;;4928569;29;20055;-92
2023/08/17 05:36:06;;;;;;;4.60;1.63;;;;;;;;;;4932971;29;20050;-90
2023/08/17 05:38:36;;;;;;;2.70;2.00;;;;;;;;;;4931973;29;20052;-93
2023/08/17 05:41:06;;;;;;;5.53;2.38;;;;;;;;;;4923767;29;20059;-92
2023/08/17 05:43:34;;;;;;;6.18;1.95;;;;;;;;;;4940878;29;20050;-93
2023/08/17 05:46:02;;;;;;;4.68;2.10;;;;;;;;;;4921748;29;20043;-92
2023/08/17 05:48:29;;;;;;;3.85;2.45;;;;;;;;;;4935266;29;20055;-92
2023/08/17 05:50:57;;;;;;;5.88;2.38;;;;;;;;;;4954359;28;20047;-91
2023/08/17 05:54:07;;;;;;;4.65;2.63;;;;;;;;;;4940842;29;20038;-93
2023/08/17 05:56:44;;;;;;;3.90;2.13;;;;;;;;;;4929734;29;20058;-94
2023/08/17 05:59:14;;;;;;;3.42;2.22;;;;;;;;;;4937278;28;20043;-91
2023/08/17 06:01:42;;;;;;;4.10;2.20;;;;;;;;;;4940885;29;20056;-93
2023/08/17 06:04:12;;;;;;;3.65;2.40;;;;;;;;;;4939080;29;20043;-92
2023/08/17 06:06:39;;;;;;;2.40;1.92;;;;;;;;;;4921641;29;20059;-91
2023/08/17 06:09:09;;;;;;;3.75;2.33;;;;;;;;;;4926364;29;20031;-91
2023/08/17 06:11:36;;;;;;;7.80;2.85;;;;;;;;;;4939575;29;20047;-90
2023/08/17 06:14:10;;;;;;;2.92;2.33;;;;;;;;;;4937246;29;20036;-93
2023/08/17 06:16:37;;;;;;;4.05;2.47;;;;;;;;;;4943071;29;20047;-92
2023/08/17 06:19:05;;;;;;;3.60;2.33;;;;;;;;;;4925864;28;20046;-93
2023/08/17 06:21:34;;;;;;;2.63;1.83;;;;;;;;;;4956662;28;20044;-93
2023/08/17 06:24:05;;;;;;;3.40;2.25;;;;;;;;;;4927196;28;20049;-93
2023/08/17 06:26:32;;;;;;;2.45;2.05;;;;;;;;;;4950978;28;20057;-91
2023/08/17 06:29:00;;;;;;;2.25;1.70;;;;;;;;;;4977290;28;20034;-91
2023/08/17 06:31:28;;;;;;;4.55;2.17;;;;;;;;;;4958220;29;20070;-91
2023/08/17 06:33:56;;;;;;;3.90;1.90;;;;;;;;;;4953951;28;20058;-92
2023/08/17 06:36:25;;;;;;;3.15;1.38;;;;;;;;;;4944309;29;20475;-93
2023/08/17 06:38:53;;;;;;;4.95;1.77;;;;;;;;;;4943787;29;20051;-92
2023/08/17 06:41:24;;;;;;;3.35;1.65;;;;;;;;;;4938505;29;20561;-91
2023/08/17 06:43:52;;;;;;;1.90;1.50;;;;;;;;;;4941932;28;20051;-92
2023/08/17 06:46:19;;;;;;;2.33;2.03;;;;;;;;;;4925083;29;20059;-93
2023/08/17 06:48:50;;;;;;;3.35;1.50;;;;;;;;;;4957906;28;20074;-94
2023/08/17 06:51:17;;;;;;;8.07;2.28;;;;;;;;;;4937152;29;20055;-92
2023/08/17 06:53:45;;;;;;;2.53;1.48;;;;;;;;;;4957001;28;20044;-93
2023/08/17 06:56:12;;;;;;;2.30;1.35;;;;;;;;;;4918584;29;20054;-93
2023/08/17 06:58:40;;;;;;;1.90;1.70;;;;;;;;;;4953474;28;20439;-93
2023/08/17 07:01:09;;;;;;;2.53;1.60;;;;;;;;;;4940031;29;20043;-93
2023/08/17 07:03:38;;;;;;;5.95;1.60;;;;;;;;;;4955147;29;20058;-93
2023/08/17 07:06:06;;;;;;;3.00;1.60;;;;;;;;;;4919994;29;20054;-93
2023/08/17 07:08:34;;;;;;;2.38;1.50;;;;;;;;;;4935970;29;20054;-93
2023/08/17 07:11:03;;;;;;;3.90;2.63;;;;;;;;;;4948399;29;20422;-93
2023/08/17 07:13:30;;;;;;;2.10;1.27;;;;;;;;;;4954371;28;20502;-93
2023/08/17 07:15:58;;;;;;;5.43;1.88;;;;;;;;;;4961450;28;20066;-93
2023/08/17 07:18:25;;;;;;;5.57;2.03;;;;;;;;;;4917821;29;20415;-93
2023/08/17 07:20:54;;;;;;;2.25;1.35;;;;;;;;;;4926327;29;20517;-94
2023/08/17 07:23:23;;;;;;;4.15;1.83;;;;;;;;;;4919301;29;20043;-93
2023/08/17 07:25:53;;;;;;;3.33;2.30;;;;;;;;;;4927908;28;20051;-92
2023/08/17 07:28:21;;;;;;;3.30;1.30;;;;;;;;;;4922149;28;20051;-93
2023/08/17 07:30:51;;;;;;;2.78;1.50;;;;;;;;;;4939052;29;20059;-93
2023/08/17 07:33:18;;;;;;;3.25;2.03;;;;;;;;;;4922640;29;20450;-93
2023/08/17 07:35:45;;;;;;;2.78;1.73;;;;;;;;;;4937366;29;20059;-93
2023/08/17 07:38:13;;;;;;;1.73;1.38;;;;;;;;;;4921733;29;20054;-92
2023/08/17 07:40:43;;;;;;;2.03;1.60;;;;;;;;;;4935299;29;20071;-92
2023/08/17 07:43:10;;;;;;;5.03;1.60;;;;;;;;;;4934254;29;20620;-93
2023/08/17 07:45:37;;;;;;;2.38;1.83;;;;;;;;;;4940164;29;20059;-93
2023/08/17 07:48:06;;;;;;;5.18;2.38;;;;;;;;;;4920821;28;20051;-92
2023/08/17 07:50:35;;;;;;;2.28;1.73;;;;;;;;;;4936169;29;20062;-93
2023/08/17 07:53:05;;;;;;;9.48;2.17;;;;;;;;;;4916931;29;20047;-92
2023/08/17 07:55:32;;;;;;;5.53;1.75;;;;;;;;;;4930723;29;20063;-92
2023/08/17 07:58:05;;;;;;;2.47;1.60;;;;;;;;;;4920574;29;20051;-93
2023/08/17 08:00:33;;;;;;;2.67;1.50;;;;;;;;;;4937332;29;20054;-92
2023/08/17 08:03:00;;;;;;;4.15;1.88;;;;;;;;;;4906743;29;20056;-93
2023/08/17 08:05:30;;;;;;;4.25;2.40;;;;;;;;;;4950144;28;20051;-93
2023/08/17 08:07:57;;;;;;;2.55;2.35;;;;;;;;;;4919605;28;20055;-92
2023/08/17 08:10:29;;;;;;;2.33;1.85;;;;;;;;;;4918607;29;20043;-93
2023/08/17 08:12:59;;;;;;;2.22;2.03;;;;;;;;;;4932449;29;20055;-93
2023/08/17 08:15:28;;;;;;;2.25;1.63;;;;;;;;;;4931993;29;20569;-93
2023/08/17 08:17:55;;;;;;;2.42;1.98;;;;;;;;;;4926970;29;20051;-92
2023/08/17 08:20:23;;;;;;;3.08;2.50;;;;;;;;;;4923241;29;20541;-93
2023/08/17 08:22:52;;;;;;;4.40;2.92;;;;;;;;;;4935899;29;20047;-92
2023/08/17 08:25:19;;;;;;;6.18;2.83;;;;;;;;;;4916938;29;20048;-92
2023/08/17 08:27:47;;;;;;;2.58;1.60;;;;;;;;;;4901877;28;20055;-92
2023/08/17 08:30:15;;;;;;;3.15;1.77;;;;;;;;;;4920977;29;20051;-93
2023/08/17 08:32:44;;;;;;;2.63;1.98;;;;;;;;;;4945339;28;20047;-93
2023/08/17 08:35:11;;;;;;;3.38;1.85;;;;;;;;;;4942192;29;20040;-93
2023/08/17 08:37:38;;;;;;;1.95;1.75;;;;;;;;;;4945503;28;20070;-90
2023/08/17 08:40:12;;;;;;;2.38;1.85;;;;;;;;;;4960835;28;20058;-93
2023/08/17 08:42:41;;;;;;;2.80;1.73;;;;;;;;;;4939489;28;20066;-92
2023/08/17 08:45:10;;;;;;;2.33;2.03;;;;;;;;;;4931981;29;20048;-92
2023/08/17 08:47:37;;;;;;;2.97;1.85;;;;;;;;;;4933265;29;20084;-92
2023/08/17 08:50:10;;;;;;;8.93;3.08;;;;;;;;;;4935821;29;20047;-93
2023/08/17 08:52:44;;;;;;;2.22;2.05;;;;;;;;;;4932716;29;20067;-92
2023/08/17 08:55:13;;;;;;;2.72;2.22;;;;;;;;;;4934357;29;20375;-93
2023/08/17 08:57:40;;;;;;;2.80;2.17;;;;;;;;;;4948405;29;20055;-93
2023/08/17 09:00:09;;;;;;;3.35;2.75;;;;;;;;;;4928336;29;20066;-91
2023/08/17 09:02:37;;;;;;;6.90;2.50;;;;;;;;;;4949206;28;20043;-93
2023/08/17 09:05:09;;;;;;;2.45;2.00;;;;;;;;;;4943918;29;20066;-92
2023/08/17 09:07:38;;;;;;;3.70;2.40;;;;;;;;;;4915810;29;20052;-92
2023/08/17 09:10:06;;;;;;;2.00;1.80;;;;;;;;;;4931679;28;20445;-92
2023/08/17 09:12:34;;;;;;;2.15;1.95;;;;;;;;;;4939619;29;20058;-93
2023/08/17 09:15:01;;;;;;;3.75;2.45;;;;;;;;;;4939086;28;20053;-92
2023/08/17 09:17:34;;;;;;;3.83;2.78;;;;;;;;;;4934427;29;20039;-93
2023/08/17 09:20:04;;;;;;;3.78;2.55;;;;;;;;;;4917390;28;20062;-92
2023/08/17 09:22:40;;;;;;;3.80;2.90;;;;;;;;;;4947062;29;20051;-93
2023/08/17 09:25:08;;;;;;;5.97;3.15;;;;;;;;;;4927127;28;20043;-92
2023/08/17 09:27:37;;;;;;;5.28;3.33;;;;;;;;;;4942874;29;20047;-91
2023/08/17 09:30:11;;;;;;;5.40;2.80;;;;;;;;;;4938872;28;20070;-92
2023/08/17 09:32:42;;;;;;;3.78;3.40;;;;;;;;;;4914656;29;20051;-93
2023/08/17 09:35:10;;;;;;;4.80;3.47;;;;;;;;;;4932051;29;20043;-93
2023/08/17 09:37:38;;;;;;;3.22;2.92;;;;;;;;;;4931342;29;20055;-92
2023/08/17 09:40:08;;;;;;;9.23;3.58;;;;;;;;;;4925838;28;20051;-93
2023/08/17 09:42:39;;;;;;;4.22;3.55;;;;;;;;;;4944245;29;20069;-93
2023/08/17 09:45:11;;;;;;;3.88;3.42;;;;;;;;;;4938267;28;20051;-93
2023/08/17 09:47:39;;;;;;;4.85;3.67;;;;;;;;;;4948896;28;20059;-92
2023/08/17 09:50:10;;;;;;;5.50;4.40;;;;;;;;;;4936936;28;20044;-93
2023/08/17 09:52:39;;;;;;;5.38;3.75;;;;;;;;;;4938414;29;20430;-92
2023/08/17 09:55:09;;;;;;;4.97;3.95;;;;;;;;;;4943854;29;20725;-94
2023/08/17 09:57:41;;;;;;;8.27;4.75;;;;;;;;;;4948597;28;20053;-91
2023/08/17 10:00:12;;;;;;;5.43;4.38;;;;;;;;;;4959373;28;20049;-92
2023/08/17 10:02:43;;;;;;;4.15;3.75;;;;;;;;;;4931952;29;20056;-91
2023/08/17 10:05:12;;;;;;;5.60;5.03;;;;;;;;;;4933794;28;20066;-92
2023/08/17 10:07:44;;;;;;;7.22;4.75;;;;;;;;;;4943178;28;20050;-91
2023/08/17 10:10:11;;;;;;;5.55;4.40;;;;;;;;;;4954257;28;20037;-91
2023/08/17 10:12:46;;;;;;;4.97;3.88;;;;;;;;;;4952291;28;20066;-93
2023/08/17 10:18:48;;;;;;;5.20;4.70;;;;;;;;;;4915138;29;20054;-92
2023/08/17 10:21:22;;;;;;;4.18;3.72;;;;;;;;;;4933573;29;20054;-92
2023/08/17 10:23:51;;;;;;;;;;;;;;;;;;4941522;29;20058;-92
2023/08/17 10:26:21;;;;;;;4.75;4.22;;;;;;;;;;4924543;28;19931;-92
2023/08/17 10:29:02;;;;;;;5.15;4.10;;;;;;;;;;4912597;29;20058;-93
2023/08/17 10:31:35;;;;;;;4.88;4.38;;;;;;;;;;4942554;29;20070;-93
2023/08/17 10:34:11;;;;;;;4.88;4.38;;;;;;;;;;4912425;29;20055;-93
2023/08/17 10:36:57;;;;;;;4.03;3.70;;;;;;;;;;4930253;29;20055;-93
2023/08/17 10:39:54;;;;;;;5.55;4.05;;;;;;;;;;4946798;29;20043;-93
2023/08/17 10:42:57;;;;;;;8.73;4.85;;;;;;;;;;4933606;29;20443;-92
2023/08/17 10:49:07;;;;;;;4.75;4.03;;;;;;;;;;4918208;28;20054;-93
2023/08/17 10:51:36;;;;;;;7.22;3.85;;;;;;;;;;4953311;29;20518;-93
2023/08/17 10:57:32;;;;;;;4.07;3.67;;;;;;;;;;4939296;28;20062;-92
2023/08/17 11:00:16;;;;;;;5.03;4.57;;;;;;;;;;4949121;28;20043;-92
2023/08/17 11:02:44;;;;;;;4.85;3.85;;;;;;;;;;4950356;28;20051;-93
2023/08/17 11:05:16;;;;;;;4.70;4.05;;;;;;;;;;4940593;28;20039;-93
2023/08/17 11:07:52;;;;;;;4.85;4.03;;;;;;;;;;4948321;28;20059;-92
2023/08/17 11:10:49;;;;;;;4.50;4.10;;;;;;;;;;4951676;28;20043;-93
2023/08/17 11:13:21;;;;;;;4.25;3.85;;;;;;;;;;4921644;29;20047;-93
2023/08/17 11:15:51;;;;;;;4.80;4.28;;;;;;;;;;4912462;29;20071;-91
2023/08/17 11:21:56;;;;;;;4.78;4.38;;;;;;;;;;4945620;28;20047;-92
2023/08/17 11:24:23;;;;;;;3.63;3.33;;;;;;;;;;4935353;29;20051;-92
2023/08/17 11:26:51;;;;;;;5.25;4.10;;;;;;;;;;4929776;29;20186;-94
2023/08/17 11:29:20;;;;;;;3.92;3.63;;;;;;;;;;4929442;28;20051;-94
2023/08/17 11:31:51;;;;;;;8.30;4.07;;;;;;;;;;4932337;29;20051;-93
2023/08/17 11:34:31;;;;;;;5.45;4.43;;;;;;;;;;4951047;28;20797;-94
2023/08/17 11:37:27;;;;;;;4.07;3.25;;;;;;;;;;4947197;28;20051;-94
2023/08/17 11:39:54;;;;;;;4.38;3.42;;;;;;;;;;4928175;29;20047;-92
2023/08/17 11:42:23;;;;;;;3.88;3.47;;;;;;;;;;4944535;28;20056;-93
2023/08/17 11:44:52;;;;;;;4.00;3.60;;;;;;;;;;4944678;29;20396;-92
2023/08/17 11:47:19;;;;;;;4.75;3.83;;;;;;;;;;4946887;28;20066;-92
2023/08/17 11:49:49;;;;;;;8.90;3.85;;;;;;;;;;4932455;29;20051;-93
2023/08/17 11:52:21;;;;;;;3.85;3.45;;;;;;;;;;4929629;29;20063;-93
2023/08/17 11:54:48;;;;;;;4.20;3.80;;;;;;;;;;4910300;29;20055;-93
2023/08/17 11:57:16;;;;;;;3.90;3.60;;;;;;;;;;4934318;29;20430;-93
2023/08/17 11:59:43;;;;;;;4.07;3.75;;;;;;;;;;4927327;29;20411;-92
2023/08/17 12:02:13;;;;;;;4.35;3.85;;;;;;;;;;4932041;29;20422;-93
2023/08/17 12:04:40;;;;;;;8.75;3.92;;;;;;;;;;4924542;29;20059;-93
2023/08/17 12:07:11;;;;;;;3.65;3.35;;;;;;;;;;4933811;29;20046;-92
2023/08/17 12:09:39;;;;;;;5.32;4.43;;;;;;;;;;4943950;28;20056;-93
2023/08/17 12:12:09;;;;;;;4.18;3.88;;;;;;;;;;4930009;29;20055;-92
2023/08/17 12:14:42;;;;;;;6.13;3.75;;;;;;;;;;4913629;29;20062;-92
2023/08/17 12:17:18;;;;;;;7.35;4.63;;;;;;;;;;4935173;28;20051;-93
2023/08/17 12:20:17;;;;;;;4.60;4.07;;;;;;;;;;4938927;29;20051;-93
2023/08/17 12:22:45;;;;;;;4.40;4.00;;;;;;;;;;4942156;29;20067;-93
2023/08/17 12:25:12;;;;;;;5.05;4.55;;;;;;;;;;4935200;29;20067;-92
2023/08/17 12:27:43;;;;;;;10.10;4.57;;;;;;;;;;4926169;29;20047;-92
2023/08/17 12:30:25;;;;;;;5.28;4.82;;;;;;;;;;4929810;29;20062;-92
2023/08/17 12:32:59;;;;;;;4.55;4.15;;;;;;;;;;4947180;28;20511;-93
2023/08/17 12:35:32;;;;;;;5.90;5.35;;;;;;;;;;4927837;29;20432;-92
2023/08/17 12:38:02;;;;;;;4.32;3.92;;;;;;;;;;4924188;29;20052;-92
2023/08/17 12:40:30;;;;;;;10.15;6.03;;;;;;;;;;4930676;29;20050;-92
2023/08/17 12:42:57;;;;;;;4.40;4.00;;;;;;;;;;4931910;29;20055;-93
2023/08/17 12:45:25;;;;;;;5.85;4.38;;;;;;;;;;4917921;29;20055;-93
2023/08/17 12:47:52;;;;;;;5.32;4.57;;;;;;;;;;4937328;29;20054;-92
2023/08/17 12:50:24;;;;;;;5.28;4.78;;;;;;;;;;4916098;29;20066;-94
2023/08/17 12:52:51;;;;;;;6.47;4.50;;;;;;;;;;4942002;29;20043;-93
2023/08/17 12:55:18;;;;;;;4.80;4.35;;;;;;;;;;4931759;29;20601;-92
2023/08/17 12:57:46;;;;;;;5.43;4.95;;;;;;;;;;4916757;29;20051;-92
2023/08/17 13:00:14;;;;;;;5.22;4.32;;;;;;;;;;4932339;29;20047;-92
2023/08/17 13:02:51;;;;;;;5.25;4.55;;;;;;;;;;4930085;29;20054;-92
2023/08/17 13:05:18;;;;;;;5.03;4.53;;;;;;;;;;4951978;28;20047;-93
2023/08/17 13:07:47;;;;;;;4.68;4.03;;;;;;;;;;4954411;29;20055;-92
2023/08/17 13:10:14;;;;;;;5.38;4.88;;;;;;;;;;4962857;28;20051;-93
2023/08/17 13:12:42;;;;;;;6.07;3.92;;;;;;;;;;4974264;28;20065;-94
2023/08/17 13:15:09;;;;;;;4.43;4.03;;;;;;;;;;4964043;28;20035;-92
2023/08/17 13:17:37;;;;;;;7.65;4.25;;;;;;;;;;4966013;28;20051;-93
2023/08/17 13:20:09;;;;;;;4.75;4.07;;;;;;;;;;4972006;28;20040;-92
2023/08/17 13:22:39;;;;;;;4.68;4.28;;;;;;;;;;4962412;28;20069;-93
2023/08/17 13:25:08;;;;;;;6.65;4.38;;;;;;;;;;4955433;28;20035;-93
2023/08/17 13:27:36;;;;;;;5.20;4.55;;;;;;;;;;4982381;28;20061;-94
2023/08/17 13:30:04;;;;;;;4.90;4.47;;;;;;;;;;4979969;28;20054;-94
2023/08/17 13:32:34;;;;;;;7.10;4.47;;;;;;;;;;4976874;28;20019;-93
2023/08/17 13:35:05;;;;;;;4.38;3.97;;;;;;;;;;4973101;28;20030;-93
2023/08/17 13:37:32;;;;;;;5.35;4.07;;;;;;;;;;4985246;28;20111;-93
2023/08/17 13:40:00;;;;;;;4.00;3.58;;;;;;;;;;4979927;28;20035;-93
2023/08/17 13:42:31;;;;;;;7.53;4.15;;;;;;;;;;4985858;28;20049;-94
2023/08/17 13:44:59;;;;;;;4.05;3.75;;;;;;;;;;4978792;28;20039;-93
2023/08/17 13:47:30;;;;;;;4.40;3.20;;;;;;;;;;4983473;28;20031;-93
2023/08/17 13:49:57;;;;;;;5.28;4.47;;;;;;;;;;4953995;28;20044;-94
2023/08/17 13:52:28;;;;;;;4.70;4.10;;;;;;;;;;4980883;28;20037;-93
2023/08/17 13:54:55;;;;;;;4.10;3.72;;;;;;;;;;4957873;28;20050;-93
2023/08/17 13:57:23;;;;;;;6.65;4.28;;;;;;;;;;4970297;28;20047;-93
2023/08/17 13:59:56;;;;;;;4.63;4.22;;;;;;;;;;4957045;28;20058;-95
2023/08/17 14:02:23;;;;;;;3.78;3.45;;;;;;;;;;4951094;29;20407;-93
2023/08/17 14:04:53;;;;;;;4.40;4.07;;;;;;;;;;4949431;29;20055;-95
2023/08/17 14:07:20;;;;;;;6.03;4.30;;;;;;;;;;4962590;28;20499;-94
2023/08/17 14:09:48;;;;;;;4.30;3.90;;;;;;;;;;4922817;29;20055;-93
2023/08/17 14:12:18;;;;;;;4.03;3.63;;;;;;;;;;4951363;28;20055;-94
2023/08/17 14:14:46;;;;;;;7.05;4.35;;;;;;;;;;4961200;29;20051;-94
2023/08/17 14:17:17;;;;;;;4.80;4.40;;;;;;;;;;4948879;29;20048;-93
2023/08/17 14:19:44;;;;;;;3.83;3.53;;;;;;;;;;4961211;29;20057;-94
2023/08/17 14:22:12;;;;;;;5.85;4.90;;;;;;;;;;4958777;28;20046;-93
2023/08/17 14:24:39;;;;;;;4.47;4.07;;;;;;;;;;4944953;29;20052;-94
2023/08/17 14:27:11;;;;;;;;;;;;;;;;;;4952703;29;20047;-94
2023/08/17 14:29:41;;;;;;;4.65;4.30;;;;;;;;;;4946004;29;19925;-94
2023/08/17 14:32:08;;;;;;;5.35;4.82;;;;;;;;;;4940731;29;20047;-94
2023/08/17 14:34:37;;;;;;;5.40;4.18;;;;;;;;;;4943180;29;20059;-93
2023/08/17 14:37:07;;;;;;;3.78;3.47;;;;;;;;;;4941020;28;20046;-94
2023/08/17 14:39:34;;;;;;;5.78;3.58;;;;;;;;;;4952069;29;20051;-94
2023/08/17 14:42:02;;;;;;;6.30;3.88;;;;;;;;;;4954977;28;20050;-94
2023/08/17 14:44:31;;;;;;;3.63;3.33;;;;;;;;;;4946098;29;20058;-94
2023/08/17 14:46:59;;;;;;;8.15;4.57;;;;;;;;;;4946792;29;20071;-95
2023/08/17 14:49:26;;;;;;;4.38;3.83;;;;;;;;;;4947756;29;20058;-94
2023/08/17 14:51:55;;;;;;;4.40;4.07;;;;;;;;;;4963305;29;20062;-94
2023/08/17 14:54:26;;;;;;;5.70;3.42;;;;;;;;;;4962798;28;20047;-94
2023/08/17 14:56:54;;;;;;;8.07;4.18;;;;;;;;;;4967925;29;20051;-95
2023/08/17 14:59:21;;;;;;;4.55;4.15;;;;;;;;;;4955814;29;20058;-94
2023/08/17 15:01:52;;;;;;;5.35;3.45;;;;;;;;;;4963447;29;20046;-95
2023/08/17 15:04:19;;;;;;;4.60;4.20;;;;;;;;;;4926363;29;20058;-93
2023/08/17 15:06:47;;;;;;;6.90;4.00;;;;;;;;;;4969911;28;20062;-93
2023/08/17 15:09:17;;;;;;;4.25;3.85;;;;;;;;;;4925819;29;20059;-94
2023/08/17 15:11:48;;;;;;;4.45;4.05;;;;;;;;;;4953852;29;20373;-94